Time;durP1;ratioP1;P1;durP2;ratioP2;P2;SDS_P1;SDS_P2;PMS_P1;PMS_P2;Temp;Humidity;BMP_temperature;BMP_pressure;BME280_temperature;BME280_humidity;BME280_pressure;Samples;Min_cycle;Max_cycle;Signal;HPM_P1;HPM_P2
2023/09/19 00:00:07;;;;;;;1.95;1.20;;;19.00;99.90;;;;;;5039575;28;20025;-66
2023/09/19 00:02:33;;;;;;;3.67;1.10;;;18.90;99.90;;;;;;5039669;28;20049;-66
2023/09/19 00:05:03;;;;;;;4.53;1.33;;;19.10;99.90;;;;;;5022931;28;20033;-68
2023/09/19 00:07:28;;;;;;;3.25;1.48;;;19.00;99.90;;;;;;5039506;28;20053;-68
2023/09/19 00:09:54;;;;;;;4.25;1.27;;;18.90;99.90;;;;;;5039121;28;20041;-68
2023/09/19 00:12:20;;;;;;;1.92;1.02;;;19.00;99.90;;;;;;5039247;28;20049;-67
2023/09/19 00:14:45;;;;;;;2.10;1.13;;;19.10;99.90;;;;;;5039065;28;20069;-68
2023/09/19 00:17:11;;;;;;;2.78;1.08;;;19.00;99.90;;;;;;5022786;28;20107;-67
2023/09/19 00:19:37;;;;;;;2.00;1.10;;;19.00;99.90;;;;;;5038985;28;20060;-68
2023/09/19 00:22:04;;;;;;;1.67;0.98;;;19.00;99.90;;;;;;5021612;28;20044;-68
2023/09/19 00:24:30;;;;;;;2.70;1.20;;;19.10;99.90;;;;;;5039040;28;20075;-68
2023/09/19 00:26:56;;;;;;;6.60;1.13;;;19.00;99.90;;;;;;5021612;28;20021;-68
2023/09/19 00:29:23;;;;;;;2.33;0.98;;;19.00;99.90;;;;;;5021397;28;20055;-68
2023/09/19 00:31:49;;;;;;;2.22;0.90;;;18.90;99.90;;;;;;5021755;28;20033;-68
2023/09/19 00:34:16;;;;;;;1.92;1.23;;;18.80;99.90;;;;;;5021718;28;20038;-68
2023/09/19 00:36:43;;;;;;;7.07;1.05;;;18.60;99.90;;;;;;5039092;28;20014;-68
2023/09/19 00:39:08;;;;;;;2.13;1.02;;;18.80;99.90;;;;;;5021163;28;20041;-68
2023/09/19 00:41:35;;;;;;;2.92;1.00;;;18.90;99.90;;;;;;5038031;28;20022;-68
2023/09/19 00:44:03;;;;;;;1.80;1.20;;;18.80;99.90;;;;;;5021557;28;20044;-68
2023/09/19 00:46:30;;;;;;;1.30;1.00;;;19.00;99.90;;;;;;5038573;28;20053;-68
2023/09/19 00:48:56;;;;;;;3.65;1.33;;;19.00;99.90;;;;;;5038364;28;20025;-68
2023/09/19 00:51:22;;;;;;;1.60;0.80;;;18.90;99.90;;;;;;5038387;28;20025;-68
2023/09/19 00:53:48;;;;;;;2.55;1.10;;;19.00;99.90;;;;;;5021070;28;20025;-67
2023/09/19 00:56:18;;;;;;;2.83;1.10;;;18.90;99.90;;;;;;5020888;28;20036;-68
2023/09/19 00:58:44;;;;;;;2.50;1.08;;;18.90;99.90;;;;;;5038406;28;20045;-67
2023/09/19 01:01:11;;;;;;;3.35;1.20;;;18.70;99.90;;;;;;5038167;28;20025;-67
2023/09/19 01:03:37;;;;;;;3.28;1.20;;;18.60;99.90;;;;;;5038278;28;20049;-67
2023/09/19 01:06:03;;;;;;;4.93;1.25;;;18.50;99.90;;;;;;5038248;28;20079;-67
2023/09/19 01:08:29;;;;;;;3.00;0.98;;;18.40;99.90;;;;;;5038179;28;20029;-67
2023/09/19 01:11:20;;;;;;;3.05;1.40;;;18.40;99.90;;;;;;5038094;28;20029;-67
2023/09/19 01:13:45;;;;;;;4.22;1.20;;;18.40;99.90;;;;;;5038373;28;20025;-67
2023/09/19 01:16:15;;;;;;;3.83;1.10;;;18.30;99.90;;;;;;5038003;28;20039;-67
2023/09/19 01:19:09;;;;;;;1.45;1.23;;;18.20;99.90;;;;;;5037926;28;20056;-68
2023/09/19 01:21:59;;;;;;;1.75;1.20;;;18.20;99.90;;;;;;5037973;28;20030;-66
2023/09/19 01:24:43;;;;;;;1.70;0.70;;;18.10;99.90;;;;;;5037990;28;20104;-66
2023/09/19 01:27:33;;;;;;;3.47;1.17;;;18.10;99.90;;;;;;5021162;28;20018;-67
2023/09/19 01:30:14;;;;;;;3.17;1.13;;;18.10;99.90;;;;;;5038051;28;20030;-67
2023/09/19 01:32:41;;;;;;;2.28;1.17;;;18.20;99.90;;;;;;5037642;28;20022;-67
2023/09/19 01:35:12;;;;;;;3.10;1.30;;;18.20;99.90;;;;;;5020222;28;20022;-67
2023/09/19 01:37:37;;;;;;;4.75;1.67;;;18.20;99.90;;;;;;5037827;28;20020;-65
2023/09/19 01:40:19;;;;;;;2.05;1.15;;;18.20;99.90;;;;;;5037720;28;20034;-66
2023/09/19 01:43:05;;;;;;;4.60;1.58;;;18.20;99.90;;;;;;5020315;28;20112;-66
2023/09/19 01:45:40;;;;;;;2.17;1.60;;;18.20;99.90;;;;;;5037625;28;20022;-66
2023/09/19 01:48:18;;;;;;;2.45;1.38;;;18.20;99.90;;;;;;5037834;28;20099;-65
2023/09/19 01:50:58;;;;;;;3.10;1.40;;;18.10;99.90;;;;;;5037406;28;20053;-67
2023/09/19 01:53:30;;;;;;;5.28;1.40;;;18.10;99.90;;;;;;5037759;28;20025;-67
2023/09/19 01:55:57;;;;;;;2.70;1.08;;;18.00;99.90;;;;;;5037239;28;20026;-65
2023/09/19 01:58:44;;;;;;;3.53;1.25;;;18.10;99.90;;;;;;5020754;28;20116;-65
2023/09/19 02:01:16;;;;;;;4.35;1.30;;;18.10;99.90;;;;;;5037322;28;20024;-65
2023/09/19 02:03:44;;;;;;;2.67;1.33;;;18.10;99.90;;;;;;5037340;28;20024;-65
2023/09/19 02:06:14;;;;;;;3.92;1.50;;;18.10;99.90;;;;;;5037347;28;20087;-68
2023/09/19 02:08:39;;;;;;;6.53;1.33;;;18.10;99.90;;;;;;5037430;28;20033;-67
2023/09/19 02:11:06;;;;;;;4.25;0.93;;;18.00;99.90;;;;;;5037034;28;20029;-67
2023/09/19 02:13:31;;;;;;;1.63;1.00;;;18.10;99.90;;;;;;5037034;28;20025;-68
2023/09/19 02:15:57;;;;;;;2.55;1.55;;;18.10;99.90;;;;;;5036953;28;20029;-65
2023/09/19 02:18:23;;;;;;;4.05;1.02;;;18.10;99.90;;;;;;5019665;28;20057;-65
2023/09/19 02:20:48;;;;;;;2.25;1.15;;;18.10;99.90;;;;;;5036909;28;20032;-65
2023/09/19 02:23:15;;;;;;;1.42;1.17;;;18.10;99.90;;;;;;5036938;28;20026;-65
2023/09/19 02:25:43;;;;;;;3.90;1.10;;;18.10;99.90;;;;;;5036787;28;20022;-65
2023/09/19 02:28:09;;;;;;;2.15;1.10;;;18.10;99.90;;;;;;5019803;28;20082;-65
2023/09/19 02:30:36;;;;;;;3.72;1.30;;;18.10;99.90;;;;;;5019381;28;20034;-65
2023/09/19 02:33:01;;;;;;;5.20;1.48;;;18.10;99.90;;;;;;5019670;28;20041;-65
2023/09/19 02:35:28;;;;;;;3.35;1.40;;;18.00;99.90;;;;;;5036644;28;20022;-65
2023/09/19 02:37:53;;;;;;;2.35;1.33;;;17.90;99.90;;;;;;5036887;28;20026;-65
2023/09/19 02:40:19;;;;;;;4.53;0.90;;;17.80;99.90;;;;;;5019432;28;20036;-65
2023/09/19 02:42:49;;;;;;;5.80;1.33;;;17.80;99.90;;;;;;5019477;28;20083;-65
2023/09/19 02:45:18;;;;;;;3.70;1.13;;;17.80;99.90;;;;;;5036962;28;20037;-65
2023/09/19 02:47:45;;;;;;;6.00;1.40;;;17.80;99.90;;;;;;5019647;28;20053;-65
2023/09/19 02:50:11;;;;;;;4.63;1.52;;;17.80;99.90;;;;;;5019777;28;20025;-65
2023/09/19 02:52:37;;;;;;;4.32;1.20;;;17.70;99.90;;;;;;5036761;28;20108;-65
2023/09/19 02:55:05;;;;;;;7.22;1.35;;;17.70;99.90;;;;;;5019970;28;20029;-65
2023/09/19 02:57:33;;;;;;;2.15;1.05;;;17.70;99.90;;;;;;5020117;28;20028;-65
2023/09/19 03:00:00;;;;;;;3.45;1.23;;;17.80;99.90;;;;;;5019502;28;20079;-65
2023/09/19 03:02:27;;;;;;;4.18;1.30;;;17.70;99.90;;;;;;5036823;28;20029;-65
2023/09/19 03:04:53;;;;;;;4.25;0.85;;;17.60;99.90;;;;;;5037295;28;20028;-65
2023/09/19 03:07:19;;;;;;;3.90;1.15;;;17.40;99.90;;;;;;5040671;28;20034;-65
2023/09/19 03:09:44;;;;;;;3.70;1.40;;;17.40;99.90;;;;;;5022969;28;20030;-65
2023/09/19 03:12:11;;;;;;;1.50;1.20;;;17.50;99.90;;;;;;5040812;28;20029;-65
2023/09/19 03:14:36;;;;;;;4.40;1.02;;;17.50;99.90;;;;;;5022979;28;20025;-65
2023/09/19 03:17:05;;;;;;;3.72;1.30;;;17.50;99.90;;;;;;5040194;28;20028;-65
2023/09/19 03:19:33;;;;;;;2.10;1.20;;;17.40;99.90;;;;;;5023013;28;20017;-65
2023/09/19 03:21:59;;;;;;;1.20;1.10;;;17.40;99.90;;;;;;5040317;28;20022;-65
2023/09/19 03:24:24;;;;;;;2.20;1.15;;;17.40;99.90;;;;;;5022950;28;20079;-65
2023/09/19 03:26:50;;;;;;;4.45;1.63;;;17.30;99.90;;;;;;5040353;28;20025;-65
2023/09/19 03:29:17;;;;;;;2.72;1.30;;;17.40;99.90;;;;;;5022724;28;20089;-65
2023/09/19 03:31:43;;;;;;;2.28;1.00;;;17.40;99.90;;;;;;5039871;28;20024;-65
2023/09/19 03:34:08;;;;;;;2.53;1.02;;;17.50;99.90;;;;;;5040316;28;20029;-65
2023/09/19 03:36:35;;;;;;;5.68;1.20;;;17.50;99.90;;;;;;5022770;28;20032;-65
2023/09/19 03:39:01;;;;;;;2.55;1.00;;;17.50;99.90;;;;;;5039778;28;20017;-65
2023/09/19 03:41:27;;;;;;;4.05;1.40;;;17.60;99.90;;;;;;5039964;28;20037;-65
2023/09/19 03:43:52;;;;;;;3.70;0.93;;;17.60;99.90;;;;;;5039749;28;20022;-65
2023/09/19 03:46:18;;;;;;;1.55;0.90;;;17.70;99.90;;;;;;5040045;28;20152;-65
2023/09/19 03:48:44;;;;;;;3.08;1.00;;;17.70;99.90;;;;;;5039813;28;20030;-65
2023/09/19 03:51:10;;;;;;;2.60;1.00;;;17.70;99.90;;;;;;5022354;28;20032;-65
2023/09/19 03:53:36;;;;;;;4.32;0.80;;;17.80;99.90;;;;;;5022148;28;20038;-65
2023/09/19 03:56:02;;;;;;;1.88;1.00;;;17.70;99.90;;;;;;5039570;28;20028;-65
2023/09/19 03:58:27;;;;;;;3.80;1.40;;;17.60;99.90;;;;;;5039424;28;20089;-65
2023/09/19 04:00:57;;;;;;;3.75;1.05;;;17.50;99.90;;;;;;5021913;28;20057;-65
2023/09/19 04:03:24;;;;;;;5.10;1.05;;;17.40;99.90;;;;;;5039421;28;20075;-65
2023/09/19 04:05:50;;;;;;;3.50;0.98;;;17.40;99.90;;;;;;5022078;28;20026;-65
2023/09/19 04:08:16;;;;;;;3.88;1.10;;;17.40;99.90;;;;;;5022105;28;20040;-65
2023/09/19 04:10:43;;;;;;;6.40;1.25;;;17.30;99.90;;;;;;5039411;28;20116;-65
2023/09/19 04:13:09;;;;;;;8.20;1.30;;;17.40;99.90;;;;;;5039096;28;20028;-65
2023/09/19 04:15:34;;;;;;;3.97;1.00;;;17.40;99.90;;;;;;5039448;28;20025;-65
2023/09/19 04:18:00;;;;;;;6.65;1.55;;;17.30;99.90;;;;;;5020975;28;20116;-65
2023/09/19 04:20:25;;;;;;;5.88;1.20;;;17.20;99.90;;;;;;5021609;28;20018;-65
2023/09/19 04:22:51;;;;;;;5.22;1.20;;;17.10;99.90;;;;;;5021557;28;20028;-65
2023/09/19 04:25:18;;;;;;;7.72;1.55;;;17.00;99.90;;;;;;5021637;28;20026;-65
2023/09/19 04:27:44;;;;;;;12.02;2.05;;;16.90;99.90;;;;;;5039251;28;20039;-65
2023/09/19 04:30:11;;;;;;;9.18;1.48;;;16.80;99.90;;;;;;5038908;28;20022;-65
2023/09/19 04:32:40;;;;;;;5.28;1.17;;;16.80;99.90;;;;;;5038933;28;20104;-65
2023/09/19 04:35:10;;;;;;;9.55;1.35;;;16.90;99.90;;;;;;5021489;28;20112;-65
2023/09/19 04:37:40;;;;;;;5.28;1.50;;;16.90;99.90;;;;;;5021690;28;20041;-65
2023/09/19 04:40:12;;;;;;;5.78;1.70;;;16.80;99.90;;;;;;5021182;28;20079;-65
2023/09/19 04:42:41;;;;;;;3.03;1.10;;;16.80;99.90;;;;;;5038833;28;20022;-65
2023/09/19 04:45:09;;;;;;;5.07;1.60;;;16.70;99.90;;;;;;5038882;28;20045;-65
2023/09/19 04:47:35;;;;;;;7.35;1.88;;;16.50;99.90;;;;;;5021504;28;20080;-65
2023/09/19 04:50:01;;;;;;;8.25;1.02;;;16.60;99.90;;;;;;5038516;28;20025;-65
2023/09/19 04:52:26;;;;;;;9.05;1.40;;;16.60;99.90;;;;;;5038470;28;20032;-65
2023/09/19 04:54:52;;;;;;;4.88;1.45;;;16.70;99.90;;;;;;5038399;28;20108;-65
2023/09/19 04:57:18;;;;;;;4.18;1.25;;;16.70;99.90;;;;;;5020895;28;20048;-65
2023/09/19 04:59:43;;;;;;;4.90;1.65;;;16.50;99.90;;;;;;5038225;28;20025;-65
2023/09/19 05:02:09;;;;;;;11.75;1.60;;;16.50;99.90;;;;;;5038705;28;20043;-65
2023/09/19 05:04:35;;;;;;;7.43;1.63;;;16.50;99.90;;;;;;5038518;28;20017;-65
2023/09/19 05:07:03;;;;;;;8.52;1.67;;;16.60;99.90;;;;;;5038523;28;20024;-65
2023/09/19 05:09:29;;;;;;;6.13;1.27;;;16.50;99.90;;;;;;5038008;28;20018;-65
2023/09/19 05:11:56;;;;;;;7.63;1.17;;;16.50;99.90;;;;;;5038048;28;20041;-65
2023/09/19 05:14:22;;;;;;;6.35;1.20;;;16.50;99.90;;;;;;5037976;28;20056;-65
2023/09/19 05:16:48;;;;;;;6.38;1.77;;;16.50;99.90;;;;;;5038026;28;20067;-65
2023/09/19 05:19:13;;;;;;;5.55;1.17;;;16.50;99.90;;;;;;5020812;28;20026;-65
2023/09/19 05:21:39;;;;;;;5.40;1.52;;;16.50;99.90;;;;;;5038144;28;20036;-66
2023/09/19 05:24:08;;;;;;;7.50;1.63;;;16.50;99.90;;;;;;5037953;28;20021;-66
2023/09/19 05:26:33;;;;;;;5.82;1.20;;;16.60;99.90;;;;;;5037841;28;20036;-66
2023/09/19 05:28:59;;;;;;;7.38;1.35;;;16.60;99.90;;;;;;5037705;28;20029;-66
2023/09/19 05:31:25;;;;;;;5.38;1.42;;;16.70;99.90;;;;;;5037693;28;20029;-66
2023/09/19 05:33:51;;;;;;;6.20;1.38;;;16.70;99.90;;;;;;5037961;28;20024;-66
2023/09/19 05:36:17;;;;;;;6.35;1.27;;;16.70;99.90;;;;;;5037552;28;20026;-68
2023/09/19 05:38:44;;;;;;;4.97;1.20;;;16.70;99.90;;;;;;5037638;28;20021;-68
2023/09/19 05:41:13;;;;;;;5.28;1.42;;;16.70;99.90;;;;;;5037386;28;20025;-68
2023/09/19 05:43:40;;;;;;;7.32;1.70;;;16.70;99.90;;;;;;5061001;22;20042;-75
2023/09/19 05:46:07;;;;;;;5.75;0.85;;;16.60;99.90;;;;;;5020371;28;20037;-75
2023/09/19 05:48:33;;;;;;;7.35;1.25;;;16.70;99.90;;;;;;5037540;28;20089;-75
2023/09/19 05:51:01;;;;;;;4.45;1.10;;;16.60;99.90;;;;;;5020517;28;20061;-75
2023/09/19 05:53:27;;;;;;;9.10;1.70;;;16.60;99.90;;;;;;5019979;28;20100;-75
2023/09/19 05:55:53;;;;;;;4.90;1.48;;;16.40;99.90;;;;;;5037606;28;20096;-74
2023/09/19 05:58:19;;;;;;;6.82;1.63;;;16.00;99.90;;;;;;5019936;28;20022;-75
2023/09/19 06:00:47;;;;;;;4.18;1.52;;;15.90;99.90;;;;;;5037251;28;20097;-75
2023/09/19 06:03:14;;;;;;;4.40;1.10;;;16.00;99.90;;;;;;5037428;28;20041;-75
2023/09/19 06:05:41;;;;;;;6.40;1.42;;;16.10;99.90;;;;;;5037095;28;20033;-75
2023/09/19 06:08:07;;;;;;;7.07;1.55;;;16.10;99.90;;;;;;5037244;28;20029;-75
2023/09/19 06:10:34;;;;;;;6.63;1.35;;;16.20;99.90;;;;;;5037150;28;20017;-75
2023/09/19 06:13:04;;;;;;;4.00;1.23;;;16.30;99.90;;;;;;5020050;28;20017;-75
2023/09/19 06:15:32;;;;;;;2.40;1.23;;;16.50;99.90;;;;;;5037123;28;20029;-75
2023/09/19 06:17:59;;;;;;;4.90;1.27;;;16.60;99.90;;;;;;5019710;28;20017;-75
2023/09/19 06:20:25;;;;;;;3.33;1.20;;;16.70;99.90;;;;;;5020002;28;20028;-75
2023/09/19 06:22:51;;;;;;;6.65;1.55;;;16.90;99.90;;;;;;5019575;28;20079;-75
2023/09/19 06:25:21;;;;;;;5.07;1.10;;;16.90;99.90;;;;;;5019616;28;20060;-75
2023/09/19 06:27:53;;;;;;;9.55;1.88;;;17.00;99.90;;;;;;5019580;28;20053;-75
2023/09/19 06:30:20;;;;;;;8.85;1.27;;;17.10;99.90;;;;;;5037171;28;20029;-75
2023/09/19 06:32:46;;;;;;;2.05;0.98;;;17.00;99.90;;;;;;5037138;28;20044;-75
2023/09/19 06:35:13;;;;;;;6.25;1.17;;;17.10;99.90;;;;;;5019424;28;20021;-75
2023/09/19 06:37:39;;;;;;;4.00;1.13;;;17.30;99.90;;;;;;5019640;28;20022;-75
2023/09/19 06:40:14;;;;;;;7.00;1.70;;;17.30;99.90;;;;;;5037839;28;20108;-75
2023/09/19 06:42:46;;;;;;;5.75;1.25;;;17.30;99.90;;;;;;5041266;28;20021;-75
2023/09/19 06:45:13;;;;;;;3.45;1.27;;;17.40;99.90;;;;;;5023626;28;20127;-75
2023/09/19 06:47:39;;;;;;;6.80;1.27;;;17.40;99.90;;;;;;5023866;28;20116;-75
2023/09/19 06:50:06;;;;;;;5.60;1.67;;;17.40;99.90;;;;;;5040815;28;20025;-75
2023/09/19 06:52:32;;;;;;;5.63;1.17;;;17.40;99.90;;;;;;5023415;28;20079;-75
2023/09/19 06:54:58;;;;;;;5.78;1.17;;;17.50;99.90;;;;;;5023304;28;20029;-75
2023/09/19 06:57:24;;;;;;;5.25;1.50;;;17.70;99.90;;;;;;5040791;28;20075;-75
2023/09/19 06:59:50;;;;;;;11.23;1.85;;;17.70;99.90;;;;;;5040944;28;20021;-75
2023/09/19 07:02:15;;;;;;;3.78;1.30;;;17.70;99.90;;;;;;5023307;28;20021;-75
2023/09/19 07:04:41;;;;;;;6.07;1.45;;;17.70;99.90;;;;;;5023132;28;20033;-75
2023/09/19 07:07:08;;;;;;;7.10;1.02;;;17.60;99.90;;;;;;5023498;28;20028;-75
2023/09/19 07:09:34;;;;;;;4.65;1.50;;;17.60;99.90;;;;;;5023023;28;20022;-75
2023/09/19 07:12:00;;;;;;;3.20;1.05;;;17.50;99.90;;;;;;5023048;28;20028;-75
2023/09/19 07:14:27;;;;;;;6.32;1.35;;;17.50;99.90;;;;;;5023453;28;20021;-75
2023/09/19 07:16:52;;;;;;;7.00;1.33;;;17.50;99.90;;;;;;5040435;28;20017;-75
2023/09/19 07:19:18;;;;;;;7.60;1.42;;;17.50;99.90;;;;;;5023975;28;20048;-74
2023/09/19 07:21:43;;;;;;;4.72;1.10;;;17.40;99.90;;;;;;5023165;28;20042;-74
2023/09/19 07:24:09;;;;;;;7.75;1.27;;;17.40;99.90;;;;;;5022646;28;20048;-74
2023/09/19 07:26:34;;;;;;;5.82;1.30;;;17.50;99.90;;;;;;5022751;28;20018;-74
2023/09/19 07:29:02;;;;;;;3.40;1.33;;;17.50;99.90;;;;;;5022840;28;20033;-74
2023/09/19 07:31:28;;;;;;;6.18;1.58;;;17.60;99.90;;;;;;5022832;28;20033;-75
2023/09/19 07:33:54;;;;;;;3.80;1.20;;;17.70;99.90;;;;;;5022473;28;20029;-74
2023/09/19 07:36:20;;;;;;;8.82;1.63;;;17.70;99.90;;;;;;5022619;28;20017;-75
2023/09/19 07:38:45;;;;;;;7.57;1.40;;;17.70;99.90;;;;;;5022979;28;20131;-75
2023/09/19 07:41:11;;;;;;;4.38;1.48;;;17.70;99.90;;;;;;5039900;28;20021;-76
2023/09/19 07:43:38;;;;;;;1.92;0.80;;;17.70;99.90;;;;;;5022408;28;20038;-76
2023/09/19 07:46:11;;;;;;;6.43;1.55;;;17.70;99.90;;;;;;5022466;28;20025;-76
2023/09/19 07:48:38;;;;;;;9.57;1.40;;;17.60;99.90;;;;;;5023200;28;20087;-75
2023/09/19 07:51:08;;;;;;;4.82;1.00;;;17.60;99.90;;;;;;5039906;28;20044;-75
2023/09/19 07:53:35;;;;;;;5.72;1.55;;;17.60;99.90;;;;;;5022370;28;20029;-75
2023/09/19 07:56:08;;;;;;;2.70;1.15;;;17.60;99.90;;;;;;5022287;28;20080;-75
2023/09/19 07:58:35;;;;;;;8.90;1.60;;;17.50;99.90;;;;;;5022240;28;20017;-75
2023/09/19 08:01:07;;;;;;;1.58;1.10;;;17.60;99.90;;;;;;5039735;28;20037;-75
2023/09/19 08:03:34;;;;;;;12.55;1.98;;;17.70;99.90;;;;;;5022070;28;20029;-75
2023/09/19 08:06:00;;;;;;;9.30;1.77;;;17.80;99.90;;;;;;5022075;28;20025;-74
2023/09/19 08:08:26;;;;;;;4.15;1.15;;;17.80;99.90;;;;;;5039734;28;20143;-75
2023/09/19 08:10:56;;;;;;;5.10;1.27;;;17.70;99.90;;;;;;5022475;28;20065;-75
2023/09/19 08:13:26;;;;;;;6.95;1.35;;;17.70;99.90;;;;;;5021981;28;20036;-76
2023/09/19 08:15:54;;;;;;;3.20;1.38;;;17.80;99.90;;;;;;5021809;28;20071;-75
2023/09/19 08:18:22;;;;;;;2.80;1.20;;;17.80;99.90;;;;;;5021854;28;20025;-75
2023/09/19 08:20:52;;;;;;;4.15;1.08;;;17.70;99.90;;;;;;5039164;28;20014;-75
2023/09/19 08:23:19;;;;;;;4.95;1.40;;;17.60;99.90;;;;;;5021607;28;20075;-75
2023/09/19 08:25:46;;;;;;;2.50;1.30;;;17.60;99.90;;;;;;5021656;28;20172;-75
2023/09/19 08:28:14;;;;;;;5.13;1.35;;;17.80;99.90;;;;;;5022444;28;20025;-75
2023/09/19 08:30:40;;;;;;;6.28;1.38;;;17.80;99.90;;;;;;5039493;28;20021;-75
2023/09/19 08:33:07;;;;;;;1.67;1.05;;;17.90;99.90;;;;;;5021844;28;20036;-75
2023/09/19 08:35:33;;;;;;;7.40;1.13;;;18.00;99.90;;;;;;5022434;28;20021;-76
2023/09/19 08:38:03;;;;;;;10.52;2.13;;;18.00;99.90;;;;;;5038956;28;20013;-75
2023/09/19 08:40:33;;;;;;;5.60;1.20;;;18.00;99.90;;;;;;5038871;28;20021;-74
2023/09/19 08:42:59;;;;;;;4.18;1.17;;;18.00;99.90;;;;;;5021458;28;20052;-75
2023/09/19 08:45:28;;;;;;;5.40;1.38;;;18.00;99.90;;;;;;5021665;28;20034;-74
2023/09/19 08:48:05;;;;;;;6.13;1.73;;;18.00;99.90;;;;;;5038575;28;20049;-75
2023/09/19 08:50:33;;;;;;;11.43;1.55;;;18.00;99.90;;;;;;5038655;28;20067;-74
2023/09/19 08:53:12;;;;;;;6.43;1.27;;;18.10;99.90;;;;;;5021215;28;20025;-74
2023/09/19 08:55:39;;;;;;;5.28;1.40;;;18.20;99.90;;;;;;5020982;28;20120;-74
2023/09/19 08:58:10;;;;;;;8.88;1.48;;;18.30;99.90;;;;;;5021092;28;20089;-75
2023/09/19 09:00:36;;;;;;;7.68;1.35;;;18.20;99.90;;;;;;5038434;28;20029;-74
2023/09/19 09:03:06;;;;;;;10.98;1.65;;;18.30;99.90;;;;;;5037881;28;20095;-74
2023/09/19 09:05:32;;;;;;;10.95;1.52;;;18.40;99.90;;;;;;5038252;28;20026;-76
2023/09/19 09:07:59;;;;;;;7.32;1.80;;;18.40;99.90;;;;;;5038293;28;20029;-77
2023/09/19 09:10:25;;;;;;;7.65;1.85;;;18.50;99.90;;;;;;5020891;28;20026;-77
2023/09/19 09:12:57;;;;;;;8.95;2.00;;;18.50;99.90;;;;;;5021452;28;20032;-75
2023/09/19 09:15:23;;;;;;;7.63;1.35;;;18.50;99.90;;;;;;5020901;28;20029;-75
2023/09/19 09:17:50;;;;;;;4.28;1.27;;;18.40;99.90;;;;;;5038012;28;20021;-75
2023/09/19 09:20:18;;;;;;;5.88;1.27;;;18.50;99.90;;;;;;5020781;28;20017;-75
2023/09/19 09:22:54;;;;;;;6.35;1.40;;;18.50;99.90;;;;;;5037853;28;20108;-75
2023/09/19 09:25:23;;;;;;;4.55;1.10;;;18.40;99.90;;;;;;5037930;28;20105;-75
2023/09/19 09:28:09;;;;;;;8.25;1.70;;;18.30;99.90;;;;;;5038268;28;20084;-76
2023/09/19 09:30:38;;;;;;;7.35;1.80;;;18.40;99.90;;;;;;5038467;28;20041;-75
2023/09/19 09:33:11;;;;;;;4.93;1.23;;;18.40;99.90;;;;;;5021313;28;20033;-76
2023/09/19 09:35:56;;;;;;;8.80;1.38;;;18.50;99.90;;;;;;5020644;28;20121;-76
2023/09/19 09:38:27;;;;;;;5.85;1.35;;;18.50;99.90;;;;;;5020515;28;20026;-76
2023/09/19 09:41:01;;;;;;;6.13;1.58;;;18.60;99.90;;;;;;5037870;28;20053;-75
2023/09/19 09:43:28;;;;;;;9.95;2.00;;;18.70;99.90;;;;;;5037686;28;20029;-75
2023/09/19 09:49:18;;;;;;;9.40;1.88;;;18.90;99.90;;;;;;5016930;28;20057;-74
2023/09/19 09:51:59;;;;;;;5.85;1.60;;;18.90;99.90;;;;;;5037532;28;20036;-74
2023/09/19 09:54:36;;;;;;;5.35;1.30;;;18.90;99.90;;;;;;5020619;28;20052;-74
2023/09/19 09:57:16;;;;;;;6.03;1.50;;;19.00;99.90;;;;;;5037746;28;20034;-74
2023/09/19 09:59:52;;;;;;;6.47;1.27;;;19.20;99.90;;;;;;5037572;28;20085;-74
2023/09/19 10:02:24;;;;;;;4.50;1.33;;;19.20;99.90;;;;;;5037796;28;20026;-74
2023/09/19 10:04:59;;;;;;;10.00;1.80;;;19.20;99.90;;;;;;5037263;28;20029;-75
2023/09/19 10:07:27;;;;;;;4.47;1.42;;;19.20;99.90;;;;;;5037365;28;20108;-75
2023/09/19 10:09:59;;;;;;;7.40;1.70;;;19.20;99.90;;;;;;5037150;28;20021;-74
2023/09/19 10:12:27;;;;;;;5.78;1.90;;;19.30;99.90;;;;;;5037232;28;20026;-74
2023/09/19 10:14:57;;;;;;;5.90;1.90;;;19.50;99.90;;;;;;5019694;28;20025;-75
2023/09/19 10:17:24;;;;;;;6.25;1.38;;;19.80;99.90;;;;;;5037349;28;20021;-75
2023/09/19 10:20:04;;;;;;;5.45;1.60;;;19.90;99.90;;;;;;5037833;28;20117;-75
2023/09/19 10:22:32;;;;;;;5.72;1.92;;;20.10;99.90;;;;;;5019746;28;20017;-75
2023/09/19 10:24:59;;;;;;;5.35;2.33;;;20.10;99.90;;;;;;5037037;28;20064;-75
2023/09/19 10:27:26;;;;;;;8.60;1.67;;;20.20;99.90;;;;;;5019642;28;20029;-74
2023/09/19 10:29:55;;;;;;;6.13;1.45;;;20.20;99.90;;;;;;5019926;28;20029;-75
2023/09/19 10:32:23;;;;;;;9.85;1.58;;;20.30;99.90;;;;;;5019746;28;20028;-75
2023/09/19 10:34:49;;;;;;;5.63;1.77;;;20.50;99.90;;;;;;5036893;28;20101;-74
2023/09/19 10:37:22;;;;;;;6.15;1.73;;;20.50;99.90;;;;;;5019585;28;20022;-75
2023/09/19 10:39:49;;;;;;;4.90;1.02;;;20.30;99.90;;;;;;5037262;28;20017;-75
2023/09/19 10:42:19;;;;;;;6.03;1.40;;;20.20;99.90;;;;;;5037074;28;20029;-75
2023/09/19 10:44:49;;;;;;;;;;;20.10;99.90;;;;;;5037488;28;20136;-75
2023/09/19 10:47:15;;;;;;;9.90;1.88;;;20.20;99.90;;;;;;5020055;28;19912;-75
2023/09/19 10:49:48;;;;;;;4.20;1.48;;;20.50;99.90;;;;;;5037072;28;20081;-75
2023/09/19 10:52:19;;;;;;;8.65;1.50;;;20.80;99.90;;;;;;5019454;28;20053;-75
2023/09/19 10:54:54;;;;;;;5.13;1.48;;;21.00;99.90;;;;;;5019629;28;20049;-74
2023/09/19 10:57:28;;;;;;;8.13;2.22;;;21.10;99.90;;;;;;5019733;28;20064;-75
2023/09/19 11:00:21;;;;;;;5.20;1.85;;;21.30;99.90;;;;;;5036991;28;20025;-74
2023/09/19 11:03:18;;;;;;;10.20;2.53;;;20.90;99.90;;;;;;5019535;28;20022;-75
2023/09/19 11:06:05;;;;;;;4.97;1.38;;;20.90;99.90;;;;;;5036599;28;20021;-75
2023/09/19 11:08:51;;;;;;;7.57;1.85;;;20.90;99.90;;;;;;5036682;28;20021;-75
2023/09/19 11:11:38;;;;;;;8.15;1.77;;;21.10;99.90;;;;;;5020023;28;20039;-75
2023/09/19 11:14:25;;;;;;;9.15;2.20;;;21.60;99.90;;;;;;5037087;28;20112;-75
2023/09/19 11:17:13;;;;;;;8.43;1.83;;;22.20;99.90;;;;;;5019132;28;20113;-74
2023/09/19 11:22:54;;;;;;;9.45;1.52;;;23.00;99.90;;;;;;5036681;28;20025;-76
2023/09/19 11:25:39;;;;;;;4.78;1.60;;;23.30;99.90;;;;;;5036874;28;20090;-77
2023/09/19 11:28:08;;;;;;;5.40;1.77;;;23.20;99.90;;;;;;5040347;28;20064;-78
2023/09/19 11:30:35;;;;;;;5.97;1.63;;;22.80;99.90;;;;;;5040170;28;20113;-77
2023/09/19 11:33:23;;;;;;;6.55;1.85;;;22.40;99.90;;;;;;5040077;28;20026;-77
2023/09/19 11:36:12;;;;;;;5.28;1.92;;;22.00;99.90;;;;;;5039986;28;20021;-77
2023/09/19 11:38:49;;;;;;;5.80;1.63;;;21.70;99.90;;;;;;5040320;28;20025;-77
2023/09/19 11:41:21;;;;;;;6.40;1.40;;;21.60;99.90;;;;;;5022520;28;20080;-77
2023/09/19 11:43:55;;;;;;;7.75;2.22;;;21.60;99.90;;;;;;5063294;22;20033;-65
2023/09/19 11:46:23;;;;;;;3.17;1.35;;;21.70;99.90;;;;;;5039996;28;20069;-65
2023/09/19 11:48:50;;;;;;;7.05;1.50;;;21.70;99.90;;;;;;5039851;28;20052;-64
2023/09/19 11:51:26;;;;;;;5.45;1.92;;;21.60;99.90;;;;;;5039762;28;20034;-67
2023/09/19 11:53:53;;;;;;;4.40;1.27;;;21.40;99.90;;;;;;5039913;28;20021;-66
2023/09/19 11:56:23;;;;;;;7.35;1.58;;;21.40;99.90;;;;;;5039620;28;20031;-66
2023/09/19 11:58:54;;;;;;;3.22;1.70;;;21.40;99.90;;;;;;5039910;28;20021;-66
2023/09/19 12:01:25;;;;;;;6.60;1.60;;;21.40;99.90;;;;;;5022279;28;20029;-66
2023/09/19 12:03:52;;;;;;;;;;;21.30;99.90;;;;;;5022284;28;20025;-66
2023/09/19 12:06:18;;;;;;;6.97;2.13;;;21.20;99.90;;;;;;5022299;28;19905;-66
2023/09/19 12:08:46;;;;;;;3.15;1.30;;;21.00;99.90;;;;;;5039440;28;20033;-66
2023/09/19 12:11:14;;;;;;;8.48;1.92;;;21.10;99.90;;;;;;5022007;28;20044;-66
2023/09/19 12:13:48;;;;;;;6.07;1.40;;;21.30;99.90;;;;;;5022263;28;20037;-65
2023/09/19 12:16:21;;;;;;;7.55;1.92;;;21.30;99.90;;;;;;5039265;28;20026;-64
2023/09/19 12:18:49;;;;;;;8.75;1.60;;;21.10;99.90;;;;;;5021938;28;20044;-65
2023/09/19 12:21:30;;;;;;;5.13;1.77;;;21.00;99.90;;;;;;5039462;28;20018;-65
2023/09/19 12:24:13;;;;;;;4.72;1.58;;;21.00;99.90;;;;;;5039089;28;20025;-65
2023/09/19 12:26:47;;;;;;;4.75;1.70;;;21.10;99.90;;;;;;5021728;28;20025;-65
2023/09/19 12:29:17;;;;;;;3.95;1.50;;;21.40;99.90;;;;;;5039271;28;20021;-65
2023/09/19 12:31:57;;;;;;;7.18;2.05;;;21.70;99.90;;;;;;5038916;28;20036;-64
2023/09/19 12:34:30;;;;;;;8.80;1.60;;;21.90;99.90;;;;;;5038849;28;20024;-64
2023/09/19 12:37:11;;;;;;;5.10;1.55;;;22.00;99.90;;;;;;5038822;28;20057;-63
2023/09/19 12:39:48;;;;;;;5.75;1.38;;;22.00;99.90;;;;;;5038707;28;20092;-64
2023/09/19 12:42:15;;;;;;;6.53;1.85;;;21.90;99.90;;;;;;5038883;28;20052;-64
2023/09/19 12:44:46;;;;;;;4.00;1.40;;;21.80;99.90;;;;;;5021735;28;20108;-64
2023/09/19 12:47:15;;;;;;;5.63;1.60;;;21.80;99.90;;;;;;5039098;28;20026;-64
2023/09/19 12:50:13;;;;;;;6.93;1.67;;;21.90;99.90;;;;;;5038638;28;20040;-64
2023/09/19 12:52:49;;;;;;;6.63;1.70;;;22.00;99.90;;;;;;5038641;28;20075;-64
2023/09/19 12:55:26;;;;;;;6.60;1.70;;;22.20;99.90;;;;;;5021510;28;20050;-64
2023/09/19 12:58:03;;;;;;;4.55;1.70;;;22.30;99.90;;;;;;5021036;28;20085;-63
2023/09/19 13:00:36;;;;;;;3.08;1.60;;;22.40;99.90;;;;;;5038519;28;20025;-63
2023/09/19 13:03:13;;;;;;;4.15;1.60;;;22.40;99.90;;;;;;5038689;28;20025;-63
2023/09/19 13:05:50;;;;;;;6.25;1.80;;;22.30;99.90;;;;;;5038320;28;20022;-64